createdAt,value
2018-09-25T00:07:15.143Z,1017.19
2018-09-25T00:17:15.192Z,1017.29
2018-09-25T00:27:15.142Z,1017.23
2018-09-25T00:37:15.212Z,1017.29
2018-09-25T00:47:15.178Z,1017.33
2018-09-25T00:57:15.903Z,1017.21
2018-09-25T01:07:15.120Z,1017.34
2018-09-25T01:17:15.190Z,1017.30
2018-09-25T01:27:15.157Z,1017.29
2018-09-25T01:37:15.963Z,1017.30
2018-09-25T01:47:15.130Z,1017.35
2018-09-25T01:57:15.092Z,1017.38
2018-09-25T02:07:16.881Z,1017.30
2018-09-25T02:17:15.107Z,1017.31
2018-09-25T02:27:15.243Z,1017.25
2018-09-25T02:37:15.152Z,1017.21
2018-09-25T02:47:15.117Z,1017.22
2018-09-25T02:57:15.173Z,1017.12
2018-09-25T03:07:15.156Z,1016.99
2018-09-25T03:17:15.170Z,1017.02
2018-09-25T03:27:15.118Z,1017.11
2018-09-25T03:37:15.125Z,1017.14
2018-09-25T03:47:15.064Z,1017.24
2018-09-25T03:57:15.150Z,1017.36
2018-09-25T04:07:15.152Z,1017.36
2018-09-25T04:17:15.094Z,1017.36
2018-09-25T04:27:15.133Z,1017.25
2018-09-25T04:37:15.412Z,1017.25
2018-09-25T04:47:15.076Z,1017.30
2018-09-25T04:57:15.169Z,1017.24
2018-09-25T05:07:15.331Z,1017.32
2018-09-25T05:17:15.091Z,1017.17
2018-09-25T05:27:15.125Z,1017.33
2018-09-25T05:37:15.512Z,1017.53
2018-09-25T05:47:14.953Z,1017.64
2018-09-25T05:57:15.097Z,1017.59
2018-09-25T06:07:15.209Z,1017.78
2018-09-25T06:17:15.340Z,1017.65
2018-09-25T06:27:15.475Z,1017.75
2018-09-25T06:37:15.043Z,1017.75
2018-09-25T06:47:15.198Z,1017.77
2018-09-25T06:57:15.035Z,1017.87
2018-09-25T07:07:15.186Z,1017.92
2018-09-25T07:17:15.065Z,1017.98
2018-09-25T07:27:15.184Z,1018.04
2018-09-25T07:37:15.276Z,1018.25
2018-09-25T07:47:15.066Z,1018.40
2018-09-25T07:57:16.146Z,1018.54
2018-09-25T08:07:15.197Z,1018.61
2018-09-25T08:17:15.288Z,1018.64
2018-09-25T08:27:16.247Z,1018.72
2018-09-25T08:37:15.416Z,1018.74
2018-09-25T08:47:15.105Z,1018.84
2018-09-25T08:57:15.522Z,1018.93
2018-09-25T09:07:15.144Z,1018.90
2018-09-25T09:17:15.402Z,1018.85
2018-09-25T09:27:15.701Z,1018.76
2018-09-25T09:37:18.301Z,1018.98
2018-09-25T09:47:15.131Z,1018.75
2018-09-25T09:57:15.097Z,1018.73
2018-09-25T10:07:16.925Z,1018.75
2018-09-25T10:17:15.185Z,1018.73
2018-09-25T10:27:18.905Z,1018.76
2018-09-25T10:37:15.113Z,1018.76
2018-09-25T10:47:18.110Z,1018.70
2018-09-25T10:57:15.151Z,1018.56
2018-09-25T11:07:15.403Z,1018.57
2018-09-25T11:17:15.098Z,1018.69
2018-09-25T11:27:15.150Z,1018.57
2018-09-25T11:37:15.858Z,1018.60
2018-09-25T11:47:16.657Z,1018.47
2018-09-25T11:57:15.176Z,1018.30
2018-09-25T12:07:15.056Z,1018.28
2018-09-25T12:17:15.475Z,1018.24
2018-09-25T12:27:16.085Z,1018.23
2018-09-25T12:37:15.221Z,1018.15
2018-09-25T12:47:15.114Z,1017.96
2018-09-25T12:57:15.422Z,1018.01
2018-09-25T13:07:15.278Z,1017.85
2018-09-25T13:17:15.233Z,1017.76
2018-09-25T13:27:15.238Z,1017.54
2018-09-25T13:37:15.164Z,1017.41
2018-09-25T13:47:15.315Z,1017.37
2018-09-25T13:57:15.071Z,1017.15
2018-09-25T14:07:15.074Z,1017.11
2018-09-25T14:17:15.258Z,1016.99
2018-09-25T14:27:16.288Z,1016.82
2018-09-25T14:37:15.266Z,1016.61
2018-09-25T14:47:15.268Z,1016.62
2018-09-25T14:57:15.256Z,1016.76
2018-09-25T15:07:15.355Z,1016.48
2018-09-25T15:17:15.174Z,1016.32
2018-09-25T15:27:15.124Z,1016.10
2018-09-25T15:37:15.256Z,1016.08
2018-09-25T15:47:15.195Z,1016.11
2018-09-25T15:57:15.944Z,1016.03
2018-09-25T16:07:15.204Z,1015.90
2018-09-25T16:17:15.233Z,1015.97
2018-09-25T16:27:15.393Z,1015.96
2018-09-25T16:37:15.513Z,1015.94
2018-09-25T16:47:15.338Z,1016.15
2018-09-25T16:57:15.239Z,1016.13
2018-09-25T17:07:15.174Z,1016.20
2018-09-25T17:17:15.664Z,1016.26
2018-09-25T17:27:15.187Z,1016.20
2018-09-25T17:37:15.241Z,1016.25
2018-09-25T17:47:15.192Z,1016.35
2018-09-25T17:57:15.189Z,1016.32
2018-09-25T18:07:15.392Z,1016.27
2018-09-25T18:17:15.191Z,1016.38
2018-09-25T18:27:17.175Z,1016.31
2018-09-25T18:37:15.233Z,1016.45
2018-09-25T18:47:15.263Z,1016.58
2018-09-25T18:57:15.265Z,1016.79
2018-09-25T19:07:15.296Z,1016.88
2018-09-25T19:17:15.208Z,1016.87
2018-09-25T19:27:15.237Z,1016.79
2018-09-25T19:37:15.203Z,1016.74
2018-09-25T19:47:15.229Z,1016.81
2018-09-25T19:57:15.195Z,1016.61
2018-09-25T20:07:15.208Z,1016.49
2018-09-25T20:17:15.193Z,1016.37
2018-09-25T20:27:15.222Z,1016.36
2018-09-25T20:37:15.205Z,1016.35
2018-09-25T20:47:15.183Z,1016.35
2018-09-25T20:57:15.230Z,1016.34
2018-09-25T21:07:15.247Z,1016.13
2018-09-25T21:17:15.251Z,1016.05
2018-09-25T21:27:15.236Z,1016.01
2018-09-25T21:37:15.158Z,1015.69
2018-09-25T21:47:15.249Z,1015.49
2018-09-25T21:57:15.410Z,1015.63
2018-09-25T22:07:15.243Z,1015.81
2018-09-25T22:17:15.140Z,1015.64
2018-09-25T22:27:15.177Z,1015.23
2018-09-25T22:37:15.181Z,1014.90
2018-09-25T22:47:15.688Z,1014.87
2018-09-25T22:57:15.151Z,1014.91
2018-09-25T23:07:15.155Z,1014.86
2018-09-25T23:17:15.211Z,1014.84
2018-09-25T23:27:15.214Z,1014.89
2018-09-25T23:37:15.314Z,1014.71
2018-09-25T23:47:16.239Z,1014.68
2018-09-25T23:57:17.507Z,1014.46
